Time;durP1;ratioP1;P1;durP2;ratioP2;P2;SDS_P1;SDS_P2;PMS_P1;PMS_P2;Temp;Humidity;BMP_temperature;BMP_pressure;BME280_temperature;BME280_humidity;BME280_pressure;Samples;Min_cycle;Max_cycle;Signal;HPM_P1;HPM_P2
2022/09/07 00:00:08;;;;;;;1.85;0.28;;;22.40;92.90;;;;;;4920840;29;20032;-72
2022/09/07 00:02:35;;;;;;;0.30;0.17;;;21.80;92.80;;;;;;4905189;29;20100;-72
2022/09/07 00:05:02;;;;;;;1.80;0.73;;;21.10;93.80;;;;;;4907401;29;20024;-75
2022/09/07 00:07:30;;;;;;;0.73;0.20;;;20.90;94.80;;;;;;4905058;29;20055;-73
2022/09/07 00:09:58;;;;;;;0.40;0.20;;;21.00;94.60;;;;;;4901519;29;22713;-73
2022/09/07 00:12:25;;;;;;;1.60;0.40;;;21.60;94.70;;;;;;4901391;29;20028;-73
2022/09/07 00:14:53;;;;;;;0.63;0.35;;;22.50;95.20;;;;;;4902262;29;20020;-73
2022/09/07 00:17:20;;;;;;;1.38;0.30;;;23.10;94.00;;;;;;4904231;29;20039;-73
2022/09/07 00:19:48;;;;;;;2.35;0.32;;;23.90;93.20;;;;;;4910865;29;20036;-74
2022/09/07 00:22:15;;;;;;;1.95;0.20;;;24.50;91.40;;;;;;4902165;29;20032;-74
2022/09/07 00:24:42;;;;;;;1.92;0.32;;;25.00;89.40;;;;;;4898298;29;20036;-74
2022/09/07 00:27:10;;;;;;;1.27;0.40;;;24.60;88.80;;;;;;4911440;29;20123;-75
2022/09/07 00:29:37;;;;;;;1.23;0.30;;;23.80;90.30;;;;;;4910971;29;20091;-73
2022/09/07 00:32:05;;;;;;;0.85;0.28;;;23.70;90.50;;;;;;4909483;29;20103;-75
2022/09/07 00:34:32;;;;;;;0.98;0.32;;;23.20;90.50;;;;;;4906938;29;20063;-77
2022/09/07 00:37:00;;;;;;;0.60;0.20;;;23.10;90.40;;;;;;4911598;29;20100;-77
2022/09/07 00:39:27;;;;;;;1.70;0.35;;;22.50;91.40;;;;;;4913256;29;20032;-75
2022/09/07 00:41:55;;;;;;;1.17;0.50;;;22.30;91.80;;;;;;4912606;29;20040;-77
2022/09/07 00:45:00;;;;;;;0.55;0.40;;;22.30;92.20;;;;;;4911038;29;20167;-76
2022/09/07 00:47:37;;;;;;;2.90;0.60;;;23.30;91.40;;;;;;4855654;29;20041;-76
2022/09/07 00:50:31;;;;;;;1.45;0.30;;;24.20;90.40;;;;;;4878257;29;20092;-75
2022/09/07 00:53:24;;;;;;;0.70;0.30;;;24.60;88.50;;;;;;4887138;29;20088;-75
2022/09/07 00:55:53;;;;;;;2.28;0.73;;;24.70;88.10;;;;;;4887142;29;20036;-78
2022/09/07 00:58:23;;;;;;;2.50;0.38;;;24.20;89.40;;;;;;4900297;29;20035;-78
2022/09/07 01:00:51;;;;;;;1.95;0.50;;;24.20;90.00;;;;;;4907214;29;20043;-75
2022/09/07 01:03:23;;;;;;;0.70;0.40;;;23.30;89.50;;;;;;4905289;29;20103;-74
2022/09/07 01:06:02;;;;;;;1.67;0.98;;;22.40;90.70;;;;;;4909215;29;20039;-74
2022/09/07 01:08:31;;;;;;;1.75;0.45;;;21.90;90.50;;;;;;4911123;29;20032;-76
2022/09/07 01:10:59;;;;;;;0.52;0.20;;;21.00;91.70;;;;;;4910431;29;20028;-75
2022/09/07 01:13:27;;;;;;;1.08;0.50;;;21.60;92.40;;;;;;4908404;29;20456;-74
2022/09/07 01:16:01;;;;;;;2.55;0.60;;;22.70;91.50;;;;;;4909625;29;20738;-77
2022/09/07 01:18:57;;;;;;;1.30;0.40;;;22.90;90.70;;;;;;4906336;29;20091;-76
2022/09/07 01:21:40;;;;;;;2.10;0.77;;;22.30;91.40;;;;;;4905109;29;20040;-75
2022/09/07 01:24:07;;;;;;;1.23;0.40;;;21.50;91.80;;;;;;4909371;29;20040;-76
2022/09/07 01:26:56;;;;;;;1.85;0.75;;;20.80;92.90;;;;;;4905501;29;20032;-75
2022/09/07 01:29:41;;;;;;;2.00;1.27;;;20.30;92.90;;;;;;4904685;29;20024;-74
2022/09/07 01:32:53;;;;;;;2.22;0.60;;;20.30;93.50;;;;;;4913035;29;20032;-74
2022/09/07 01:35:49;;;;;;;2.42;0.88;;;20.60;92.40;;;;;;4828187;29;20062;-76
2022/09/07 01:38:51;;;;;;;1.15;0.38;;;20.70;92.30;;;;;;4903458;29;20468;-73
2022/09/07 01:41:29;;;;;;;2.55;0.32;;;21.50;91.70;;;;;;4910689;29;20047;-76
2022/09/07 01:44:25;;;;;;;0.90;0.47;;;22.30;90.70;;;;;;4911512;29;20036;-75
2022/09/07 01:47:06;;;;;;;0.95;0.20;;;22.70;89.80;;;;;;4903753;29;20036;-75
2022/09/07 01:49:39;;;;;;;1.35;0.50;;;23.00;89.20;;;;;;4909450;29;20024;-74
2022/09/07 01:52:33;;;;;;;1.25;0.47;;;23.10;89.90;;;;;;4910928;29;20118;-75
2022/09/07 01:55:26;;;;;;;2.45;0.50;;;23.60;90.50;;;;;;4911192;29;20032;-77
2022/09/07 01:58:18;;;;;;;4.43;0.35;;;23.90;87.40;;;;;;4911564;29;20024;-76
2022/09/07 02:00:53;;;;;;;1.85;0.30;;;23.00;89.20;;;;;;4902272;29;20329;-76
2022/09/07 02:03:29;;;;;;;1.75;0.50;;;22.90;90.20;;;;;;4904243;29;20036;-77
2022/09/07 02:06:04;;;;;;;3.28;0.50;;;23.00;89.00;;;;;;4909059;29;20024;-77
2022/09/07 02:08:42;;;;;;;2.40;0.35;;;22.00;88.40;;;;;;4914141;29;20036;-75
2022/09/07 02:11:33;;;;;;;0.98;0.35;;;21.40;90.70;;;;;;4905427;29;20033;-77
2022/09/07 02:14:24;;;;;;;0.98;0.55;;;21.20;90.80;;;;;;4915622;29;20095;-77
2022/09/07 02:16:56;;;;;;;1.33;0.80;;;21.10;90.60;;;;;;4913204;29;20084;-74
2022/09/07 02:19:26;;;;;;;0.98;0.30;;;21.90;91.20;;;;;;4914521;29;20486;-75
2022/09/07 02:22:02;;;;;;;2.53;0.50;;;22.50;89.50;;;;;;4913341;29;20072;-77
2022/09/07 02:24:43;;;;;;;2.92;0.32;;;22.60;89.20;;;;;;4916716;29;20052;-77
2022/09/07 02:27:28;;;;;;;1.65;0.40;;;22.40;88.90;;;;;;4911675;29;20040;-75
2022/09/07 02:29:56;;;;;;;1.13;0.30;;;22.90;87.50;;;;;;4910210;29;20540;-73
2022/09/07 02:32:24;;;;;;;0.60;0.30;;;22.50;87.50;;;;;;4916988;29;20066;-75
2022/09/07 02:34:51;;;;;;;0.40;0.40;;;22.30;88.70;;;;;;4912659;29;20036;-74
2022/09/07 02:37:20;;;;;;;2.05;0.25;;;21.70;89.10;;;;;;4914983;29;20042;-74
2022/09/07 02:39:48;;;;;;;3.22;0.50;;;21.10;90.70;;;;;;4911982;29;20040;-74
2022/09/07 02:42:15;;;;;;;0.50;0.10;;;21.50;90.90;;;;;;4907479;29;20047;-77
2022/09/07 02:44:45;;;;;;;0.70;0.20;;;22.30;90.30;;;;;;4913468;29;20091;-76
2022/09/07 02:47:34;;;;;;;0.30;0.20;;;22.80;88.90;;;;;;4898187;29;20033;-74
2022/09/07 02:50:17;;;;;;;2.30;0.35;;;23.40;87.40;;;;;;4906078;29;20052;-77
2022/09/07 02:53:26;;;;;;;2.28;0.20;;;23.40;86.90;;;;;;4912476;29;20036;-73
2022/09/07 02:56:08;;;;;;;1.25;0.25;;;23.20;87.50;;;;;;4831620;29;20034;-77
2022/09/07 02:59:06;;;;;;;1.73;0.70;;;23.40;87.50;;;;;;4900181;29;20112;-71
2022/09/07 03:02:01;;;;;;;1.13;0.20;;;23.20;89.10;;;;;;4904202;29;20063;-75
2022/09/07 03:04:46;;;;;;;3.22;0.30;;;22.50;87.90;;;;;;4906522;29;20048;-77
2022/09/07 03:07:22;;;;;;;0.68;0.40;;;21.80;90.60;;;;;;4909789;29;20044;-73
2022/09/07 03:09:53;;;;;;;1.52;0.30;;;21.60;90.40;;;;;;4914001;29;20063;-75
2022/09/07 03:12:21;;;;;;;0.98;0.30;;;21.70;91.40;;;;;;4912652;29;20032;-76
2022/09/07 03:14:48;;;;;;;0.70;0.40;;;21.60;90.10;;;;;;4910988;29;20046;-75
2022/09/07 03:17:16;;;;;;;2.70;0.50;;;21.70;90.20;;;;;;4910903;29;20115;-73
2022/09/07 03:19:43;;;;;;;0.70;0.20;;;21.70;89.90;;;;;;4911418;29;20123;-76
2022/09/07 03:22:11;;;;;;;8.30;0.65;;;21.40;90.30;;;;;;4897412;29;20407;-76
2022/09/07 03:24:38;;;;;;;1.98;0.50;;;21.20;90.20;;;;;;4912358;29;20047;-74
2022/09/07 03:27:06;;;;;;;0.60;0.20;;;21.00;90.90;;;;;;4914059;29;20038;-74
2022/09/07 03:29:33;;;;;;;3.45;0.45;;;21.00;91.40;;;;;;4912775;29;20063;-75
2022/09/07 03:32:01;;;;;;;0.60;0.38;;;20.90;91.20;;;;;;4901530;29;20028;-75
2022/09/07 03:34:28;;;;;;;1.35;0.40;;;21.20;91.60;;;;;;4901980;29;20028;-75
2022/09/07 03:36:55;;;;;;;0.32;0.30;;;22.00;90.90;;;;;;4907562;29;20119;-74
2022/09/07 03:39:25;;;;;;;0.50;0.25;;;22.80;89.40;;;;;;4904253;29;20032;-72
2022/09/07 03:41:52;;;;;;;3.00;0.52;;;22.60;89.80;;;;;;4901227;29;20425;-75
2022/09/07 03:44:20;;;;;;;2.05;0.32;;;22.10;90.30;;;;;;4899457;29;20036;-73
2022/09/07 03:46:50;;;;;;;0.55;0.30;;;21.90;90.70;;;;;;4906081;29;20040;-73
2022/09/07 03:49:18;;;;;;;1.75;0.32;;;21.60;90.80;;;;;;4914407;29;20028;-73
2022/09/07 03:51:45;;;;;;;1.52;0.43;;;21.30;91.30;;;;;;4902297;29;20130;-77
2022/09/07 03:54:12;;;;;;;3.00;0.40;;;21.10;91.60;;;;;;4909888;29;20063;-77
2022/09/07 03:56:40;;;;;;;3.83;0.60;;;21.10;91.60;;;;;;4909622;29;20107;-74
2022/09/07 03:59:07;;;;;;;2.10;0.50;;;21.40;91.30;;;;;;4904313;29;20040;-74
2022/09/07 04:01:35;;;;;;;1.58;0.80;;;21.30;90.60;;;;;;4905369;29;20052;-77
2022/09/07 04:04:03;;;;;;;1.55;0.43;;;21.10;91.50;;;;;;4909612;29;20409;-77
2022/09/07 04:06:31;;;;;;;0.32;0.30;;;21.30;91.40;;;;;;4918579;29;20032;-73
2022/09/07 04:09:04;;;;;;;2.28;0.68;;;21.70;90.70;;;;;;4922421;29;20114;-79
2022/09/07 04:11:32;;;;;;;2.08;0.28;;;22.40;90.50;;;;;;4910432;29;20044;-77
2022/09/07 04:14:02;;;;;;;0.82;0.30;;;22.30;89.70;;;;;;4909104;29;20088;-76
2022/09/07 04:16:30;;;;;;;2.22;0.88;;;22.50;89.60;;;;;;4906064;29;20031;-74
2022/09/07 04:18:57;;;;;;;4.05;0.45;;;22.40;88.80;;;;;;4906190;29;20028;-74
2022/09/07 04:21:27;;;;;;;2.40;0.68;;;21.90;88.80;;;;;;4908809;29;20040;-74
2022/09/07 04:23:54;;;;;;;2.28;0.20;;;21.70;88.40;;;;;;4913595;29;20387;-74
2022/09/07 04:26:34;;;;;;;4.85;0.30;;;21.30;89.80;;;;;;4901320;29;20500;-77
2022/09/07 04:29:03;;;;;;;1.80;0.65;;;21.20;89.80;;;;;;4911856;29;20056;-78
2022/09/07 04:31:32;;;;;;;1.65;0.32;;;21.30;89.90;;;;;;4912618;29;20066;-78
2022/09/07 04:33:59;;;;;;;1.27;0.30;;;21.70;88.70;;;;;;4894870;29;20028;-75
2022/09/07 04:36:27;;;;;;;1.83;0.45;;;21.90;88.60;;;;;;4907972;29;20028;-75
2022/09/07 04:38:59;;;;;;;0.57;0.45;;;21.50;89.00;;;;;;4895606;29;20111;-76
2022/09/07 04:41:28;;;;;;;3.13;0.40;;;21.00;90.10;;;;;;4911540;29;20040;-78
2022/09/07 04:43:58;;;;;;;1.92;0.30;;;21.10;90.30;;;;;;4914068;29;20124;-76
2022/09/07 04:46:29;;;;;;;0.73;0.30;;;21.60;90.10;;;;;;4907233;29;20107;-77
2022/09/07 04:48:59;;;;;;;1.65;0.30;;;22.00;88.90;;;;;;4902568;29;20032;-78
2022/09/07 04:51:30;;;;;;;1.23;0.30;;;22.10;87.30;;;;;;4905274;29;20040;-78
2022/09/07 04:53:59;;;;;;;1.83;0.40;;;22.00;87.10;;;;;;4913203;29;20364;-77
2022/09/07 04:56:27;;;;;;;1.48;0.52;;;22.10;87.40;;;;;;4909292;29;20036;-78
2022/09/07 04:58:54;;;;;;;0.60;0.25;;;22.10;87.50;;;;;;4912201;29;20032;-80
2022/09/07 05:01:24;;;;;;;0.65;0.20;;;22.00;86.80;;;;;;4908183;29;20039;-76
2022/09/07 05:03:52;;;;;;;0.55;0.20;;;21.90;87.50;;;;;;4894474;29;20118;-77
2022/09/07 05:06:21;;;;;;;0.85;0.30;;;21.60;87.70;;;;;;4909914;29;20096;-77
2022/09/07 05:08:51;;;;;;;1.02;0.35;;;21.30;87.40;;;;;;4911470;29;20044;-77
2022/09/07 05:11:20;;;;;;;1.85;0.65;;;20.90;88.60;;;;;;4907891;29;20519;-80
2022/09/07 05:13:47;;;;;;;2.40;0.30;;;20.60;89.70;;;;;;4914195;29;20032;-85
2022/09/07 05:16:18;;;;;;;2.95;0.47;;;20.40;90.20;;;;;;4906934;29;20036;-77
2022/09/07 05:18:54;;;;;;;0.75;0.38;;;20.20;90.30;;;;;;4884504;29;20036;-80
2022/09/07 05:21:24;;;;;;;0.50;0.30;;;20.00;90.50;;;;;;4908998;29;20498;-80
2022/09/07 05:23:56;;;;;;;2.08;0.40;;;19.90;91.00;;;;;;4910445;29;20051;-80
2022/09/07 05:26:26;;;;;;;0.70;0.50;;;19.70;91.10;;;;;;4909222;29;20479;-80
2022/09/07 05:28:54;;;;;;;2.28;1.02;;;19.70;91.30;;;;;;4906312;29;20036;-80
2022/09/07 05:31:23;;;;;;;7.22;0.52;;;19.60;92.40;;;;;;4911459;29;20047;-81
2022/09/07 05:33:58;;;;;;;1.45;0.52;;;19.40;93.00;;;;;;4911904;29;20063;-77
2022/09/07 05:36:26;;;;;;;2.63;0.52;;;19.30;93.10;;;;;;4909780;29;20455;-80
2022/09/07 05:38:55;;;;;;;2.75;0.50;;;19.30;93.50;;;;;;4907806;29;20036;-79
2022/09/07 05:41:24;;;;;;;2.63;0.40;;;19.20;93.90;;;;;;4902537;29;20079;-78
2022/09/07 05:43:53;;;;;;;0.68;0.45;;;19.20;94.10;;;;;;4898149;29;20036;-79
2022/09/07 05:46:21;;;;;;;1.75;0.88;;;19.20;93.90;;;;;;4912522;29;20126;-77
2022/09/07 05:48:48;;;;;;;4.43;0.60;;;19.20;94.00;;;;;;4901576;29;20044;-76
2022/09/07 05:51:16;;;;;;;3.95;0.40;;;19.20;94.20;;;;;;4907591;29;20134;-79
2022/09/07 05:53:47;;;;;;;7.05;0.82;;;19.10;94.30;;;;;;4912769;29;20027;-78
2022/09/07 05:56:15;;;;;;;1.77;0.75;;;19.10;94.50;;;;;;4907551;29;20115;-77
2022/09/07 05:58:47;;;;;;;1.88;0.73;;;19.00;94.70;;;;;;4907352;29;20020;-79
2022/09/07 06:01:14;;;;;;;4.05;0.50;;;19.10;94.70;;;;;;4909905;29;20072;-80
2022/09/07 06:03:43;;;;;;;6.72;0.65;;;19.00;94.80;;;;;;4908334;29;20028;-77
2022/09/07 06:06:12;;;;;;;4.20;0.93;;;19.00;95.10;;;;;;4906126;29;20055;-77
2022/09/07 06:08:44;;;;;;;2.05;0.77;;;19.00;94.80;;;;;;4914987;29;20123;-76
2022/09/07 06:11:14;;;;;;;2.38;0.45;;;19.00;95.10;;;;;;4904988;29;20036;-79
2022/09/07 06:13:42;;;;;;;3.60;0.40;;;19.00;95.00;;;;;;4910002;29;20112;-79
2022/09/07 06:16:11;;;;;;;1.38;0.50;;;18.90;95.40;;;;;;4906309;29;20024;-76
2022/09/07 06:18:41;;;;;;;4.93;0.52;;;18.80;95.50;;;;;;4909230;29;20377;-80
2022/09/07 06:21:22;;;;;;;1.48;0.65;;;18.70;95.60;;;;;;4913123;29;20031;-74
2022/09/07 06:23:54;;;;;;;3.33;0.60;;;18.70;95.70;;;;;;4916059;29;20510;-75
2022/09/07 06:26:21;;;;;;;5.97;0.60;;;18.70;95.80;;;;;;4903285;29;20036;-78
2022/09/07 06:28:49;;;;;;;4.88;1.45;;;18.60;95.60;;;;;;4911146;29;20070;-79
2022/09/07 06:31:19;;;;;;;1.90;0.73;;;18.60;95.50;;;;;;4913855;29;20059;-77
2022/09/07 06:33:47;;;;;;;1.25;0.50;;;18.60;95.40;;;;;;4901395;29;20119;-77
2022/09/07 06:36:15;;;;;;;1.00;0.60;;;18.50;95.50;;;;;;4905953;29;20119;-78
2022/09/07 06:38:44;;;;;;;1.92;0.60;;;18.50;95.60;;;;;;4913420;29;20043;-78
2022/09/07 06:41:16;;;;;;;1.20;0.40;;;18.40;95.70;;;;;;4913855;29;20055;-78
2022/09/07 06:43:43;;;;;;;1.27;0.38;;;18.30;95.90;;;;;;4916353;29;20111;-78
2022/09/07 06:46:12;;;;;;;2.35;1.00;;;18.30;96.00;;;;;;4913871;29;20171;-79
2022/09/07 06:48:39;;;;;;;4.35;1.13;;;18.30;96.10;;;;;;4907419;29;20036;-77
2022/09/07 06:51:11;;;;;;;3.13;0.60;;;18.30;96.30;;;;;;4907698;29;20031;-78
2022/09/07 06:53:38;;;;;;;2.33;0.70;;;18.30;96.20;;;;;;4913528;29;20028;-83
2022/09/07 06:56:08;;;;;;;1.17;0.57;;;18.20;96.20;;;;;;4912932;29;20028;-77
2022/09/07 06:58:36;;;;;;;5.97;0.70;;;18.20;96.30;;;;;;4911307;29;20036;-78
2022/09/07 07:01:14;;;;;;;1.45;0.50;;;18.20;96.30;;;;;;4913698;29;20155;-80
2022/09/07 07:03:43;;;;;;;1.65;0.77;;;18.10;96.50;;;;;;4915190;29;20123;-82
2022/09/07 07:06:11;;;;;;;1.55;0.60;;;18.00;96.90;;;;;;4906410;29;20032;-80
2022/09/07 07:08:39;;;;;;;1.90;0.93;;;17.90;97.00;;;;;;4907694;29;20087;-81
2022/09/07 07:11:12;;;;;;;2.00;0.57;;;17.80;97.30;;;;;;4913728;29;20462;-79
2022/09/07 07:13:41;;;;;;;1.85;0.60;;;17.60;97.40;;;;;;4914560;29;20063;-81
2022/09/07 07:16:12;;;;;;;3.55;0.50;;;17.60;97.60;;;;;;4909953;29;20028;-80
2022/09/07 07:18:40;;;;;;;2.92;0.50;;;17.50;97.60;;;;;;4909371;29;20044;-78
2022/09/07 07:21:11;;;;;;;0.98;0.40;;;17.40;97.90;;;;;;4919105;29;20047;-80
2022/09/07 07:23:39;;;;;;;1.75;0.47;;;17.40;98.00;;;;;;4916887;29;20032;-78
2022/09/07 07:26:27;;;;;;;1.90;0.93;;;17.30;98.40;;;;;;4908617;29;20043;-82
2022/09/07 07:28:56;;;;;;;0.95;0.95;;;17.20;98.80;;;;;;4913105;29;20024;-80
2022/09/07 07:31:25;;;;;;;0.55;0.30;;;17.10;99.10;;;;;;4912641;29;20036;-82
2022/09/07 07:33:53;;;;;;;3.60;0.40;;;17.00;99.30;;;;;;4896838;29;20044;-82
2022/09/07 07:36:26;;;;;;;1.27;0.30;;;16.90;99.60;;;;;;4905143;29;20372;-80
2022/09/07 07:38:55;;;;;;;0.82;0.45;;;16.80;99.80;;;;;;4906343;29;20056;-77
2022/09/07 07:41:28;;;;;;;1.77;0.77;;;16.70;99.90;;;;;;4912883;29;20039;-75
2022/09/07 07:43:57;;;;;;;0.93;0.30;;;16.70;99.90;;;;;;4915653;29;20376;-76
2022/09/07 07:46:25;;;;;;;2.88;1.17;;;16.60;99.90;;;;;;4908029;29;20056;-79
2022/09/07 07:48:53;;;;;;;12.65;1.00;;;16.50;99.90;;;;;;4915367;29;20432;-79
2022/09/07 07:51:21;;;;;;;3.67;0.70;;;16.50;99.90;;;;;;4907805;29;20039;-82
2022/09/07 07:53:48;;;;;;;0.98;0.95;;;16.40;99.90;;;;;;4897326;29;20036;-80
2022/09/07 07:56:17;;;;;;;1.58;0.47;;;16.40;99.90;;;;;;4903161;29;20361;-79
2022/09/07 07:58:46;;;;;;;2.45;0.68;;;16.30;99.90;;;;;;4912829;29;20502;-76
2022/09/07 08:01:16;;;;;;;1.73;0.32;;;16.30;99.90;;;;;;4908757;29;20039;-82
2022/09/07 08:03:48;;;;;;;4.57;1.05;;;16.30;99.90;;;;;;4902081;29;20044;-78
2022/09/07 08:06:20;;;;;;;0.95;0.40;;;16.20;99.90;;;;;;4901840;29;20119;-79
2022/09/07 08:08:51;;;;;;;2.78;0.50;;;16.20;99.90;;;;;;4902457;29;20138;-78
2022/09/07 08:11:20;;;;;;;2.90;0.70;;;16.20;99.90;;;;;;4902488;29;20036;-77
2022/09/07 08:13:49;;;;;;;3.45;1.05;;;16.20;99.90;;;;;;4901820;29;20151;-76
2022/09/07 08:16:17;;;;;;;1.90;0.30;;;16.10;99.90;;;;;;4900608;29;20028;-76
2022/09/07 08:18:45;;;;;;;1.77;0.50;;;16.10;99.90;;;;;;4905603;29;20438;-78
2022/09/07 08:21:15;;;;;;;3.60;0.55;;;16.10;99.90;;;;;;4902020;29;20047;-76
2022/09/07 08:23:42;;;;;;;1.48;0.50;;;16.00;99.90;;;;;;4897746;29;20028;-78
2022/09/07 08:26:10;;;;;;;1.45;0.43;;;16.00;99.90;;;;;;4909119;29;20044;-74
2022/09/07 08:28:40;;;;;;;1.92;0.40;;;15.90;99.90;;;;;;4914340;29;20131;-75
2022/09/07 08:31:10;;;;;;;3.95;0.50;;;15.90;99.90;;;;;;4910501;29;20492;-74
2022/09/07 08:33:39;;;;;;;2.17;0.38;;;15.90;99.90;;;;;;4912488;29;20503;-76
2022/09/07 08:36:13;;;;;;;6.35;0.55;;;15.80;99.90;;;;;;4906474;29;20047;-74
2022/09/07 08:38:41;;;;;;;5.07;0.82;;;15.80;99.90;;;;;;4912019;29;20360;-75
2022/09/07 08:41:33;;;;;;;4.35;0.52;;;15.80;99.90;;;;;;4902034;29;20055;-76
2022/09/07 08:44:11;;;;;;;4.07;0.50;;;15.80;99.90;;;;;;4898012;29;20036;-76
2022/09/07 08:46:53;;;;;;;6.20;0.70;;;15.70;99.90;;;;;;4912374;29;20508;-77
2022/09/07 08:50:01;;;;;;;3.30;0.70;;;15.60;99.90;;;;;;4914220;29;20032;-78
2022/09/07 08:52:51;;;;;;;2.80;0.60;;;15.60;99.90;;;;;;4883669;29;20052;-76
2022/09/07 08:55:30;;;;;;;3.85;0.40;;;15.50;99.90;;;;;;4908669;29;20052;-75
2022/09/07 08:58:47;;;;;;;1.15;0.45;;;15.50;99.90;;;;;;4913431;29;20079;-75
2022/09/07 09:01:18;;;;;;;4.47;1.13;;;15.40;99.90;;;;;;4888862;29;20542;-76
2022/09/07 09:03:48;;;;;;;5.05;0.55;;;15.40;99.90;;;;;;4899669;29;20040;-76
2022/09/07 09:06:47;;;;;;;4.57;1.00;;;15.40;99.90;;;;;;4911681;29;20028;-75
2022/09/07 09:09:50;;;;;;;1.38;0.40;;;15.40;99.90;;;;;;4895049;29;20060;-75
2022/09/07 09:12:17;;;;;;;2.25;0.45;;;15.30;99.90;;;;;;4901113;29;20036;-75
2022/09/07 09:15:13;;;;;;;2.88;0.63;;;15.30;99.90;;;;;;4907640;29;20055;-79
2022/09/07 09:17:41;;;;;;;3.13;0.60;;;15.30;99.90;;;;;;4909510;29;20139;-75
2022/09/07 09:20:32;;;;;;;3.53;0.95;;;15.30;99.90;;;;;;4914516;29;20036;-77
2022/09/07 09:23:12;;;;;;;6.47;1.05;;;15.30;99.90;;;;;;4912499;29;20032;-76
2022/09/07 09:25:50;;;;;;;3.60;0.65;;;15.20;99.90;;;;;;4909808;29;20028;-77
2022/09/07 09:28:18;;;;;;;1.05;0.50;;;15.20;99.90;;;;;;4907320;29;20032;-77
2022/09/07 09:30:48;;;;;;;4.30;0.73;;;15.10;99.90;;;;;;4900402;29;21893;-77
2022/09/07 09:33:22;;;;;;;0.90;0.43;;;15.00;99.90;;;;;;4902041;29;20551;-77
2022/09/07 09:35:55;;;;;;;2.47;0.45;;;15.00;99.90;;;;;;4912218;29;20036;-77
2022/09/07 09:38:33;;;;;;;2.88;0.63;;;14.90;99.90;;;;;;4910978;29;20126;-78
2022/09/07 09:41:06;;;;;;;3.65;1.15;;;14.80;99.90;;;;;;4892255;29;20036;-76
2022/09/07 09:43:53;;;;;;;4.47;1.25;;;14.80;99.90;;;;;;4912832;29;20035;-76
2022/09/07 09:46:29;;;;;;;1.88;0.70;;;14.80;99.90;;;;;;4906438;29;20028;-77
2022/09/07 09:48:57;;;;;;;2.08;1.30;;;14.70;99.90;;;;;;4913299;29;20075;-78
2022/09/07 09:51:27;;;;;;;1.67;0.50;;;14.80;99.90;;;;;;4910729;29;20032;-78
2022/09/07 09:54:20;;;;;;;1.85;0.75;;;14.70;99.90;;;;;;4921357;29;20455;-79
2022/09/07 09:56:48;;;;;;;2.85;0.52;;;14.70;99.90;;;;;;4902749;29;20558;-79
2022/09/07 09:59:21;;;;;;;1.38;0.70;;;14.70;99.90;;;;;;4913846;29;20120;-78
2022/09/07 10:01:50;;;;;;;2.60;0.98;;;14.60;99.90;;;;;;4911935;29;20092;-79
2022/09/07 10:04:34;;;;;;;6.43;1.60;;;14.60;99.90;;;;;;4914585;29;20024;-79
2022/09/07 10:07:08;;;;;;;2.63;0.68;;;14.60;99.90;;;;;;4900495;29;20047;-78
2022/09/07 10:09:42;;;;;;;4.45;0.70;;;14.50;99.90;;;;;;4912022;29;20095;-74
2022/09/07 10:12:34;;;;;;;4.03;0.82;;;14.60;99.90;;;;;;4913310;29;20032;-78
2022/09/07 10:15:23;;;;;;;2.72;0.73;;;14.50;99.90;;;;;;4912824;29;20043;-79
2022/09/07 10:17:51;;;;;;;2.20;0.60;;;14.50;99.90;;;;;;4915136;29;20048;-79
2022/09/07 10:20:18;;;;;;;2.45;1.27;;;14.50;99.90;;;;;;4910657;29;20035;-79
2022/09/07 10:22:47;;;;;;;4.60;0.63;;;14.40;99.90;;;;;;4905151;29;20037;-80
2022/09/07 10:25:43;;;;;;;1.42;0.57;;;14.40;99.90;;;;;;4904664;29;20031;-79
2022/09/07 10:28:11;;;;;;;4.47;0.98;;;14.40;99.90;;;;;;4900609;29;20040;-79
2022/09/07 10:31:13;;;;;;;1.70;0.85;;;14.30;99.90;;;;;;4915315;29;20050;-79
2022/09/07 10:34:05;;;;;;;2.08;0.85;;;14.40;99.90;;;;;;4899451;29;20040;-79
2022/09/07 10:36:51;;;;;;;1.52;0.90;;;14.40;99.90;;;;;;4916403;29;20040;-79
2022/09/07 10:39:25;;;;;;;1.95;1.30;;;14.30;99.90;;;;;;4917848;29;20031;-78
2022/09/07 10:42:09;;;;;;;4.50;1.40;;;14.30;99.90;;;;;;4911784;29;20064;-78
2022/09/07 10:45:00;;;;;;;1.98;1.05;;;14.30;99.90;;;;;;4920103;29;20031;-78
2022/09/07 10:47:33;;;;;;;3.97;1.38;;;14.40;99.90;;;;;;4891084;29;20400;-76
2022/09/07 10:50:23;;;;;;;6.05;1.83;;;14.30;99.90;;;;;;4903651;29;21613;-79
2022/09/07 10:53:11;;;;;;;4.15;1.98;;;14.30;99.90;;;;;;4890460;29;20444;-79
2022/09/07 10:56:20;;;;;;;3.88;2.13;;;14.30;99.90;;;;;;4908573;29;20087;-78
2022/09/07 10:58:50;;;;;;;2.55;1.55;;;14.30;99.90;;;;;;4916962;29;20043;-77
2022/09/07 11:01:36;;;;;;;4.72;2.03;;;14.40;99.90;;;;;;4904756;29;20110;-77
2022/09/07 11:04:46;;;;;;;5.07;1.70;;;14.40;99.90;;;;;;4903514;29;20040;-79
2022/09/07 11:07:32;;;;;;;2.78;1.30;;;14.40;99.90;;;;;;4912264;29;20646;-79
2022/09/07 11:10:14;;;;;;;5.20;2.15;;;14.40;99.90;;;;;;4915871;29;20056;-80
2022/09/07 11:12:43;;;;;;;3.10;1.55;;;14.50;99.90;;;;;;4901864;29;20036;-79
2022/09/07 11:15:18;;;;;;;2.53;1.17;;;14.50;99.90;;;;;;4914578;29;20048;-77
2022/09/07 11:17:58;;;;;;;6.20;1.20;;;14.40;99.90;;;;;;4914529;29;20032;-76
2022/09/07 11:20:37;;;;;;;1.95;1.20;;;14.50;99.90;;;;;;4914873;29;20032;-75
2022/09/07 11:23:17;;;;;;;6.47;3.72;;;14.50;99.90;;;;;;4915809;29;20558;-77
2022/09/07 11:25:47;;;;;;;5.20;3.75;;;14.40;99.90;;;;;;4914065;29;20462;-77
2022/09/07 11:28:23;;;;;;;4.18;2.30;;;14.40;99.90;;;;;;4914213;29;20063;-76
2022/09/07 11:30:53;;;;;;;;;;;14.40;99.90;;;;;;4911116;29;20042;-76
2022/09/07 11:33:48;;;;;;;1.88;1.35;;;14.30;99.90;;;;;;4906686;29;19978;-76
2022/09/07 11:36:18;;;;;;;3.83;1.73;;;14.30;99.90;;;;;;4910611;29;20048;-74
2022/09/07 11:39:22;;;;;;;1.50;1.35;;;14.20;99.90;;;;;;4907779;29;20042;-77
2022/09/07 11:42:05;;;;;;;3.95;1.80;;;14.20;99.90;;;;;;4897395;29;20051;-77
2022/09/07 11:44:41;;;;;;;2.38;1.58;;;14.10;99.90;;;;;;4905722;29;20184;-78
2022/09/07 11:47:19;;;;;;;5.70;3.50;;;14.10;99.90;;;;;;4902790;29;20525;-79
2022/09/07 11:49:51;;;;;;;3.20;2.17;;;14.00;99.90;;;;;;4900549;29;20029;-78
2022/09/07 11:52:27;;;;;;;4.63;1.65;;;14.00;99.90;;;;;;4903547;29;20123;-77
2022/09/07 11:55:03;;;;;;;2.33;1.10;;;13.90;99.90;;;;;;4899695;29;20448;-77
2022/09/07 11:57:43;;;;;;;;;;;13.90;99.90;;;;;;4900293;29;20040;-77
2022/09/07 12:00:23;;;;;;;3.60;1.63;;;13.90;99.90;;;;;;4905230;29;20089;-78
2022/09/07 12:03:08;;;;;;;2.63;1.20;;;13.90;99.90;;;;;;4903985;29;20088;-78
2022/09/07 12:06:13;;;;;;;3.25;1.00;;;13.80;99.90;;;;;;4906933;29;20388;-75
2022/09/07 12:09:15;;;;;;;2.65;1.13;;;13.80;99.90;;;;;;4864979;29;20044;-78
2022/09/07 12:12:01;;;;;;;2.65;1.00;;;13.80;99.90;;;;;;4902972;29;20040;-78
2022/09/07 12:14:49;;;;;;;3.85;1.30;;;13.70;99.90;;;;;;4910911;29;20040;-75
2022/09/07 12:17:46;;;;;;;1.50;0.98;;;13.70;99.90;;;;;;4908474;29;20036;-80
2022/09/07 12:20:17;;;;;;;2.15;0.90;;;13.70;99.90;;;;;;4903316;29;20055;-76
2022/09/07 12:22:59;;;;;;;1.27;0.52;;;13.60;99.90;;;;;;4912742;29;20086;-78
2022/09/07 12:25:28;;;;;;;2.33;0.80;;;13.60;99.90;;;;;;4908133;29;20348;-75
2022/09/07 12:27:55;;;;;;;1.98;0.82;;;13.60;99.90;;;;;;4926563;29;20032;-77
2022/09/07 12:30:23;;;;;;;1.83;0.98;;;13.60;99.90;;;;;;4912584;29;20039;-74
2022/09/07 12:32:51;;;;;;;2.53;0.93;;;13.60;99.90;;;;;;4912409;29;20412;-76
2022/09/07 12:35:33;;;;;;;5.72;2.90;;;13.60;99.90;;;;;;4905572;29;20036;-74
2022/09/07 12:38:25;;;;;;;4.82;2.92;;;13.50;99.90;;;;;;4906833;29;20048;-78
2022/09/07 12:41:02;;;;;;;3.92;1.80;;;13.50;99.90;;;;;;4882774;29;20046;-79
2022/09/07 12:43:43;;;;;;;3.00;1.70;;;13.50;99.90;;;;;;4907746;29;20083;-78
2022/09/07 12:46:40;;;;;;;3.88;1.50;;;13.40;99.90;;;;;;4905036;29;20035;-74
2022/09/07 12:49:37;;;;;;;4.25;1.20;;;13.30;99.90;;;;;;4895080;29;20134;-75
2022/09/07 12:52:07;;;;;;;1.88;1.02;;;13.30;99.90;;;;;;4907866;29;20044;-76
2022/09/07 12:54:51;;;;;;;5.47;2.13;;;13.20;99.90;;;;;;4902958;29;20407;-74
2022/09/07 12:57:41;;;;;;;5.88;1.85;;;13.20;99.90;;;;;;4900725;29;20415;-73
2022/09/07 13:00:12;;;;;;;5.22;2.20;;;13.10;99.90;;;;;;4908273;29;20111;-75
2022/09/07 13:03:00;;;;;;;4.88;2.38;;;13.10;99.90;;;;;;4909035;29;20115;-76
2022/09/07 13:06:06;;;;;;;6.15;2.47;;;13.10;99.90;;;;;;4905433;29;20032;-75
2022/09/07 13:08:50;;;;;;;5.03;2.45;;;13.10;99.90;;;;;;4857013;29;20048;-75
2022/09/07 13:11:38;;;;;;;9.57;5.05;;;13.00;99.90;;;;;;4909601;29;20048;-77
2022/09/07 13:14:13;;;;;;;18.92;7.18;;;13.00;99.90;;;;;;4903260;29;20036;-76
2022/09/07 13:16:43;;;;;;;11.68;6.53;;;12.90;99.90;;;;;;4901041;29;20116;-75
2022/09/07 13:19:35;;;;;;;13.95;7.97;;;12.90;99.90;;;;;;4899673;29;20028;-75
2022/09/07 13:22:02;;;;;;;14.38;7.78;;;12.80;99.90;;;;;;4900160;29;20147;-75
2022/09/07 13:24:51;;;;;;;9.70;5.05;;;12.80;99.90;;;;;;4901164;29;20028;-74
2022/09/07 13:27:27;;;;;;;5.20;3.70;;;12.80;99.90;;;;;;4899607;29;20036;-75
2022/09/07 13:29:59;;;;;;;4.50;1.85;;;12.70;99.90;;;;;;4900826;29;20036;-74